Bay Area Logo

Salinas, CA Single Family Real Estate Listings

502 Total Real Estate Listings * Click on table heading to sort
Date Posted Property Type Style Address Price Living Area Lot Size Price/Sq Ft.
2018-11-28 Single Family 309 Sequoia Street Salinas, CA 93906 $434,000 1,112 sq. ft. 6,534 sq. ft. $390
2018-11-28 Single Family 15 White Road Salinas, CA 93907 $399,000 816 sq. ft. 6,970 sq. ft. $489
2018-11-28 Single Family 1166 Raven Court Salinas, CA 93905 $490,000 1,821 sq. ft. 5,663 sq. ft. $269
2018-11-27 Single Family 1516 El Dorado Drive Salinas, CA 93906 $439,000 1,112 sq. ft. 6,098 sq. ft. $395
2018-11-27 Single Family 316 Andina Drive Salinas, CA 93905 $389,900 1,257 sq. ft. 5,663 sq. ft. $310
2018-11-26 Single Family 7520 Chester Lane Salinas, CA 93907 $639,000 1,774 sq. ft. 35,719 sq. ft. $360
2018-11-24 Single Family 15239 Century Oak Road Salinas, CA 93907 $675,000 2,026 sq. ft. 13,939 sq. ft. $333
2018-11-23 Single Family 95 San Clemente Avenue Salinas, CA 93901 $368,800 1,875 sq. ft. 6,098 sq. ft. $197
2018-11-21 Single Family 47 Riker Street Salinas, CA 93901 $399,000 1,400 sq. ft. 5,663 sq. ft. $285
2018-11-21 Single Family Ranch 207 Wildwood Way Salinas, CA 93908 $885,000 2,395 sq. ft. 12,632 sq. ft. $370
2018-11-21 Single Family Custom; Traditional 17516 Woodridge Court Salinas, CA 93908 $649,000 1,764 sq. ft. 3,485 sq. ft. $368
2018-11-21 Single Family Ranch 18855 Moro Circle Salinas, CA 93907 $799,000 1,896 sq. ft. 108,900 sq. ft. $421
2018-11-20 Single Family Traditional 192 Gardenia Drive Salinas, CA 93906 $488,888 1,750 sq. ft. 6,970 sq. ft. $279
2018-11-20 Single Family Contemporary 1837 Massachusetts Drive Salinas, CA 93905 $590,000 2,398 sq. ft. 5,227 sq. ft. $246
2018-11-19 Single Family 14410 Mountain Quail Road Salinas, CA 93908 $899,000 2,062 sq. ft. 5,663 sq. ft. $436
2018-11-19 Single Family 334 San Vincente Avenue Salinas, CA 93901 $540,000 1,977 sq. ft. 12,632 sq. ft. $273
2018-11-17 Single Family 1623 Newport Court Salinas, CA 93906 $529,000 1,877 sq. ft. 6,534 sq. ft. $282
2018-11-17 Single Family 638 Carriage Court Salinas, CA 93905 $379,900 1,130 sq. ft. 3,485 sq. ft. $336
2018-11-17 Single Family 1109 Elmsford Way Salinas, CA 93906 $599,000 2,591 sq. ft. 5,663 sq. ft. $231
2018-11-17 Single Family 19 Gardenia Circle Salinas, CA 93906 $489,000 1,308 sq. ft. 12,197 sq. ft. $374
2018-11-17 Single Family Mediterranean 992 Crestview Street Salinas, CA 93906 $540,000 1,427 sq. ft. 5,227 sq. ft. $378
2018-11-16 Single Family 55 Grove Street Salinas, CA 93901 $489,000 1,132 sq. ft. 7,841 sq. ft. $432
2018-11-16 Single Family 1449 Parsons Avenue Salinas, CA 93906 $379,000 1,034 sq. ft. 3,920 sq. ft. $367
2018-11-16 Single Family 26415 Honor Lane Salinas, CA 93908 $640,000 1,570 sq. ft. 3,920 sq. ft. $408
2018-11-16 Single Family 111 Laguna Place Salinas, CA 93908 $899,000 1,963 sq. ft. 132,858 sq. ft. $458
2018-11-16 Single Family 1513 Boyle Court Salinas, CA 93906 $389,000 1,118 sq. ft. 3,920 sq. ft. $348
2018-11-15 Single Family 1105 Aspen Place Salinas, CA 93901 $549,900 1,630 sq. ft. 8,276 sq. ft. $337
2018-11-15 Single Family 12832 Jasper Way Salinas, CA 93906 $489,000 1,701 sq. ft. 10,454 sq. ft. $287
2018-11-15 Single Family 1225 San Fernando Drive Salinas, CA 93901 $590,000 1,577 sq. ft. 6,534 sq. ft. $374
2018-11-14 Single Family 334 Alexander Street Salinas, CA 93901 $415,000 1,023 sq. ft. 4,792 sq. ft. $406
2018-11-14 Single Family Custom 17534 Sugarmill Road Salinas, CA 93908 $595,000 1,372 sq. ft. 3,920 sq. ft. $434
2018-11-14 Single Family 1229 Adams Street Salinas, CA 93906 $439,900 1,569 sq. ft. 7,405 sq. ft. $280
2018-11-14 Single Family Traditional 19180 Eden Path Salinas, CA 93907 $769,000 2,819 sq. ft. 130,680 sq. ft. $273
2018-11-13 Single Family 813 Amarillo Way Salinas, CA 93905 $419,900 1,402 sq. ft. 5,227 sq. ft. $300
2018-11-13 Single Family 41 Homestead Avenue Salinas, CA 93901 $524,900 1,494 sq. ft. 6,098 sq. ft. $351
2018-11-12 Single Family 10 Muroc Street Salinas, CA 93907 $327,850 878 sq. ft. 10,890 sq. ft. $373
2018-11-12 Single Family 1053 Driftwood Place Salinas, CA 93901 $564,700 2,436 sq. ft. 9,148 sq. ft. $232
2018-11-12 Single Family 566 San Felipe Street Salinas, CA 93901 $679,000 2,126 sq. ft. 6,098 sq. ft. $319
2018-11-11 Single Family 2 Bernal Drive Salinas, CA 93906 $359,000 1,008 sq. ft. 3,049 sq. ft. $356
2018-11-10 Single Family 1933 Gladstone Way Salinas, CA 93906 $649,888 2,447 sq. ft. 6,534 sq. ft. $266
2018-11-10 Single Family 125 Larkspur Drive Salinas, CA 93906 $449,000 1,190 sq. ft. 6,098 sq. ft. $377
2018-11-09 Single Family 1573 Cottonwood Drive Salinas, CA 93905 $549,000 2,540 sq. ft. 8,276 sq. ft. $216
2018-11-09 Single Family 808 Old Stage Road Salinas, CA 93908 $795,000 2,500 sq. ft. 218,671 sq. ft. $318
2018-11-09 Single Family Mediterranean 25230 Azalea Court Salinas, CA 93908 $745,500 1,831 sq. ft. 6,098 sq. ft. $407
2018-11-09 Single Family 307 Madeira Avenue Salinas, CA 93905 $425,000 1,341 sq. ft. 9,148 sq. ft. $317
2018-11-08 Single Family 1431 Nichols Avenue Salinas, CA 93906 $459,000 1,240 sq. ft. 7,405 sq. ft. $370
2018-11-08 Single Family 602 Dallas Avenue Salinas, CA 93905 $389,000 1,432 sq. ft. 6,534 sq. ft. $272
2018-11-07 Single Family 364 San Benancio Road Salinas, CA 93908 $2,895,000 3,375 sq. ft. 1,767,229 sq. ft. $858
2018-11-07 Single Family Craftsman 528 Central Avenue Salinas, CA 93901 $499,000 1,369 sq. ft. 6,970 sq. ft. $364
2018-11-07 Single Family 643 University Avenue Salinas, CA 93901 $509,900 1,531 sq. ft. 6,098 sq. ft. $333
2018-11-06 Single Family 1228 Hilltop Drive Salinas, CA 93905 $469,000 1,703 sq. ft. 11,761 sq. ft. $275
2018-11-06 Single Family 1118 San Ysidro Way Salinas, CA 93901 $559,900 2,093 sq. ft. 6,098 sq. ft. $268
2018-11-05 Single Family Traditional 22281 Toro Hills Drive Salinas, CA 93908 $1,295,000 4,328 sq. ft. 43,560 sq. ft. $299
2018-11-05 Single Family 963 Hancock Street Salinas, CA 93906 $569,000 2,191 sq. ft. 5,663 sq. ft. $260
2018-11-04 Single Family 1268 Palermo Salinas, CA 93905 $593,580 2,687 sq. ft. 4,356 sq. ft. $221
2018-11-03 Single Family 135 Hawthorne Street Salinas, CA 93901 $507,000 1,270 sq. ft. 6,534 sq. ft. $399
2018-11-03 Single Family 2 Stony Brook Circle Salinas, CA 93906 $639,900 2,605 sq. ft. 7,841 sq. ft. $246
2018-11-03 Single Family Mediterranean 1934 Newcastle Drive Salinas, CA 93906 $550,000 2,602 sq. ft. 6,970 sq. ft. $211
2018-11-02 Single Family 1767 Great Island Street Salinas, CA 93906 $549,000 1,823 sq. ft. 5,227 sq. ft. $301
2018-11-02 Single Family Cottage 2050 Santa Rita Street Salinas, CA 93906 $369,900 1,450 sq. ft. 3,920 sq. ft. $255
2018-11-02 Single Family Prairie; Ranch 17795 Berta Canyon Road Salinas, CA 93907 $699,900 1,604 sq. ft. 51,401 sq. ft. $436
2018-11-02 Single Family 22670 Murietta Road Salinas, CA 93908 $745,000 2,233 sq. ft. 12,197 sq. ft. $334
2018-11-01 Single Family 120 Afton Road Salinas, CA 93905 $314,000 1,254 sq. ft. 6,970 sq. ft. $250
2018-11-01 Single Family 9609 Mountain View Terrace Salinas, CA 93907 $524,900 1,695 sq. ft. 16,988 sq. ft. $310
2018-11-01 Single Family 38 Villa Street Salinas, CA 93901 $399,999 1,193 sq. ft. 7,405 sq. ft. $335
2018-11-01 Single Family 27603 Prestancia Circle Salinas, CA 93908 $1,005,000 3,818 sq. ft. 13,504 sq. ft. $263
2018-10-31 Single Family 14540 Mountain Quail Road Salinas, CA 93908 $989,000 2,867 sq. ft. 5,663 sq. ft. $345
2018-10-31 Single Family Custom; Traditional 22 Santa Ana Drive Salinas, CA 93901 $969,000 2,845 sq. ft. 6,970 sq. ft. $341
2018-10-30 Single Family Contemporary 25215 Casiano Drive Salinas, CA 93908 $849,000 2,793 sq. ft. 43,124 sq. ft. $304
2018-10-30 Single Family 1814 Marsala Way Salinas, CA 93905 $598,000 2,853 sq. ft. 5,227 sq. ft. $210
2018-10-30 Single Family Contemporary; Ranch 18570 Ranchito Del Rio Drive Salinas, CA 93908 $965,000 2,500 sq. ft. 43,560 sq. ft. $386
2018-10-30 Single Family 1693 Atherton Way Salinas, CA 93906 $539,000 2,065 sq. ft. 7,841 sq. ft. $261
2018-10-29 Single Family 24680 Foothill Drive Salinas, CA 93908 $795,000 2,778 sq. ft. 43,560 sq. ft. $286
2018-10-29 Single Family 22 Nacional Street Salinas, CA 93901 $549,000 1,541 sq. ft. 6,098 sq. ft. $356
2018-10-29 Single Family 616 Alvarado Court Salinas, CA 93907 $374,900 985 sq. ft. 3,485 sq. ft. $381
2018-10-29 Single Family 1171 Polk Street Salinas, CA 93906 $429,000 1,190 sq. ft. 6,534 sq. ft. $360
2018-10-29 Single Family 1229 Ramona Avenue Salinas, CA 93906 $405,000 950 sq. ft. 6,098 sq. ft. $426
2018-10-29 Single Family 418 Elwood Street Salinas, CA 93906 $475,000 1,215 sq. ft. 6,098 sq. ft. $391
2018-10-29 Single Family Spanish 8654 Carolines Ridge Road Salinas, CA 93907 $2,200,000 5,631 sq. ft. 447,797 sq. ft. $391
2018-10-29 Single Family 70 Saint Francis Way Salinas, CA 93906 $465,000 1,768 sq. ft. 6,098 sq. ft. $263
2018-10-28 Single Family Mediterranean 1506 Duran Circle Salinas, CA 93906 $346,500 984 sq. ft. 3,049 sq. ft. $352
2018-10-27 Single Family Contemporary 1988 Bradbury Street Salinas, CA 93906 $495,000 1,928 sq. ft. 3,920 sq. ft. $257
2018-10-27 Single Family 17704 Riverbend Road Salinas, CA 93908 $729,000 2,603 sq. ft. 4,792 sq. ft. $280
2018-10-27 Single Family 316 Primavera Way Salinas, CA 93901 $488,500 1,376 sq. ft. 4,356 sq. ft. $355
2018-10-26 Single Family 51 San Pedro Street Salinas, CA 93901 $507,500 1,229 sq. ft. 6,534 sq. ft. $413
2018-10-26 Single Family Traditional 19603 Longview Terrace Salinas, CA 93908 $1,249,000 4,330 sq. ft. 54,886 sq. ft. $288
2018-10-26 Single Family 1054 Harding Street Salinas, CA 93906 $459,000 1,220 sq. ft. 6,534 sq. ft. $376
2018-10-26 Single Family 126 Del Mar Drive Salinas, CA 93901 $549,000 1,444 sq. ft. 8,276 sq. ft. $380
2018-10-26 Single Family Cape Cod 1138 Wellington Court Salinas, CA 93906 $557,000 1,755 sq. ft. 6,098 sq. ft. $317
2018-10-26 Single Family 732 San Jacinto Drive Salinas, CA 93901 $580,000 1,738 sq. ft. 5,663 sq. ft. $334
2018-10-26 Single Family 618 Argentine Drive Salinas, CA 93905 $439,000 1,678 sq. ft. 6,970 sq. ft. $262
2018-10-25 Single Family 549 Victor Street Salinas, CA 93907 $389,900 985 sq. ft. 3,485 sq. ft. $396
2018-10-25 Single Family 660 John Street Salinas, CA 93905 $415,000 1,144 sq. ft. 6,098 sq. ft. $363
2018-10-24 Single Family 501 Saint Albans Way Salinas, CA 93905 $439,000 1,336 sq. ft. 5,663 sq. ft. $329
2018-10-24 Single Family 18730 Linda Vista Place Salinas, CA 93907 $825,000 2,500 sq. ft. 24,394 sq. ft. $330
2018-10-24 Single Family 1141 Granada Avenue Salinas, CA 93906 $425,000 1,148 sq. ft. 6,534 sq. ft. $370
2018-10-19 Single Family Cape Cod 11 Provincetown Circle Salinas, CA 93906 $548,888 1,861 sq. ft. 7,841 sq. ft. $295
2018-10-19 Single Family Traditional 59 Santa Teresa Way Salinas, CA 93906 $449,000 1,970 sq. ft. 6,098 sq. ft. $228
2018-10-19 Single Family 905 Sierra Drive Salinas, CA 93901 $620,000 1,848 sq. ft. 7,405 sq. ft. $336
2018-10-19 Single Family Ranch 127 Manzanita Way Salinas, CA 93908 $859,900 2,301 sq. ft. 12,197 sq. ft. $374
2018-10-19 Single Family 528 Kent Street Salinas, CA 93906 $600,000 2,473 sq. ft. 6,534 sq. ft. $243
2018-10-18 Single Family 17860 Berta Canyon Road Salinas, CA 93907 $599,000 1,552 sq. ft. 27,443 sq. ft. $386
2018-10-18 Single Family 1788 Lennox Way Salinas, CA 93906 $560,000 1,788 sq. ft. 6,970 sq. ft. $313
2018-10-17 Single Family Ranch 21123 Old Ranch Court Salinas, CA 93908 $596,000 1,512 sq. ft. 5,227 sq. ft. $394
2018-10-17 Single Family 1667 Boston Street Salinas, CA 93906 $569,900 2,413 sq. ft. 5,227 sq. ft. $236
2018-10-17 Single Family Traditional 105 San Benancio Road Salinas, CA 93908 $820,000 2,575 sq. ft. 159,430 sq. ft. $318
2018-10-16 Single Family 7 Ellis Circle Salinas, CA 93907 $389,900 984 sq. ft. 4,356 sq. ft. $396
2018-10-16 Single Family 9422 Hawk Drive Salinas, CA 93907 $749,000 2,399 sq. ft. 54,014 sq. ft. $312
2018-10-16 Single Family 836 Capistrano Drive Salinas, CA 93901 $619,900 2,093 sq. ft. 6,534 sq. ft. $296
2018-10-16 Single Family 740 Meyers Court Salinas, CA 93905 $320,000 687 sq. ft. 2,178 sq. ft. $466
2018-10-16 Single Family 13258 Jackson Street Salinas, CA 93906 $409,000 1,102 sq. ft. 5,663 sq. ft. $371
2018-10-15 Single Family 703 La Honda Court Salinas, CA 93905 $410,000 1,216 sq. ft. 5,663 sq. ft. $337
2018-10-15 Single Family 1266 Pacific Avenue Salinas, CA 93905 $400,000 1,287 sq. ft. 4,792 sq. ft. $311
2018-10-15 Single Family 1639 Cupertino Way Salinas, CA 93906 $450,000 1,532 sq. ft. 8,712 sq. ft. $294
2018-10-15 Single Family 25669 Wisteria Court Salinas, CA 93908 $665,000 1,714 sq. ft. 4,356 sq. ft. $388
2018-10-15 Single Family Mediterranean 10730 Country Meadows Road Salinas, CA 93907 $750,000 2,442 sq. ft. 84,506 sq. ft. $307
2018-10-15 Single Family Craftsman 383 Corral De Tierra Road Salinas, CA 93908 $2,200,000 5,546 sq. ft. 148,975 sq. ft. $397
2018-10-12 Single Family Contemporary 13795 Vista Dorada Salinas, CA 93908 $1,898,900 5,154 sq. ft. 30,056 sq. ft. $368
2018-10-12 Single Family 206 Primrose Drive Salinas, CA 93906 $439,900 1,387 sq. ft. 6,098 sq. ft. $317
2018-10-12 Single Family Ranch 663 La Mesa Drive Salinas, CA 93901 $630,000 2,130 sq. ft. 6,534 sq. ft. $296
2018-10-11 Single Family 1544 Ebro Circle Salinas, CA 93906 $375,000 1,002 sq. ft. 3,049 sq. ft. $374
2018-10-11 Single Family 802 Inglewood Street Salinas, CA 93906 $589,000 2,191 sq. ft. 5,227 sq. ft. $269
2018-10-11 Single Family 1255 Summit Drive Salinas, CA 93905 $389,900 1,030 sq. ft. 6,534 sq. ft. $379
2018-10-11 Single Family 1464 Mustang Court Salinas, CA 93905 $469,900 1,549 sq. ft. 6,098 sq. ft. $303
2018-10-11 Single Family 724 Sherman Circle Salinas, CA 93907 $355,000 985 sq. ft. 3,485 sq. ft. $360
2018-10-10 Single Family Ranch 15310 Oak Hills Drive Salinas, CA 93907 $589,000 1,736 sq. ft. 14,810 sq. ft. $339
2018-10-10 Single Family 754 Potrero Way Salinas, CA 93907 $619,000 2,752 sq. ft. 7,841 sq. ft. $225
2018-10-10 Single Family 17621 Cunha Lane Salinas, CA 93907 $775,000 1,959 sq. ft. 56,628 sq. ft. $396
2018-10-08 Single Family 230 San Juan Drive Salinas, CA 93901 $869,088 3,346 sq. ft. 6,098 sq. ft. $260
2018-10-06 Single Family 218 Romie Lane Salinas, CA 93901 $609,000 2,043 sq. ft. 7,841 sq. ft. $298
2018-10-05 Single Family 27104 Prestancia Way Salinas, CA 93908 $950,000 3,818 sq. ft. 11,761 sq. ft. $249
2018-10-05 Single Family Ranch 75 Harper Canyon Road Salinas, CA 93908 $780,000 1,738 sq. ft. 78,408 sq. ft. $449
2018-10-05 Single Family 36 Pine Street Salinas, CA 93901 $599,900 2,600 sq. ft. 6,534 sq. ft. $231
2018-10-05 Single Family Mediterranean 1193 Wellington Court Salinas, CA 93906 $584,900 2,498 sq. ft. 6,534 sq. ft. $234
2018-10-02 Single Family Cottage 820 San Antonio Drive Salinas, CA 93901 $549,000 1,512 sq. ft. 6,534 sq. ft. $363
2018-10-02 Single Family 1022 Fitzgerald Street Salinas, CA 93906 $514,900 1,722 sq. ft. 3,920 sq. ft. $299
2018-10-01 Single Family 1279 Palermo Drive Salinas, CA 93905 $595,266 2,687 sq. ft. 4,792 sq. ft. $222
2018-10-01 Single Family 884 Madeira Avenue Salinas, CA 93905 $458,000 1,408 sq. ft. 5,663 sq. ft. $325
2018-09-30 Single Family 740 Madeira Circle Salinas, CA 93905 $469,000 1,765 sq. ft. 7,841 sq. ft. $266
2018-09-29 Single Family 419 Hyland Drive Salinas, CA 93907 $359,900 1,135 sq. ft. 6,534 sq. ft. $317
2018-09-28 Single Family 1030 Fitzgerald Street Salinas, CA 93906 $644,888 2,650 sq. ft. 6,098 sq. ft. $243
2018-09-28 Single Family 19851 Pesante Road Salinas, CA 93907 $599,900 3,164 sq. ft. 70,132 sq. ft. $190
2018-09-28 Single Family Ranch 9575 Century Oak Road Salinas, CA 93907 $619,000 2,189 sq. ft. 13,068 sq. ft. $283
2018-09-28 Single Family Traditional 1846 Lancashire Drive Salinas, CA 93906 $589,900 2,195 sq. ft. 5,227 sq. ft. $269
2018-09-27 Single Family 18514 Northridge Drive Salinas, CA 93906 $457,000 1,443 sq. ft. 5,663 sq. ft. $317
2018-09-27 Single Family 1516 Ebro Circle Salinas, CA 93906 $339,000 984 sq. ft. 4,792 sq. ft. $345
2018-09-27 Single Family Contemporary; Traditional 1562 Manchester Drive Salinas, CA 93906 $524,500 1,566 sq. ft. 4,356 sq. ft. $335
2018-09-26 Single Family Ranch 648 Middlefield Road Salinas, CA 93906 $620,000 1,491 sq. ft. 27,443 sq. ft. $416
2018-09-26 Single Family 1075 Market Street Salinas, CA 93905 $499,000 1,942 sq. ft. 6,098 sq. ft. $257
2018-09-26 Single Family 2 Mesa Del Sol Salinas, CA 93908 $1,095,000 3,324 sq. ft. 47,045 sq. ft. $329
2018-09-24 Single Family 1010 Mohar Street Salinas, CA 93905 $359,000 883 sq. ft. 7,405 sq. ft. $407
2018-09-24 Single Family 1146 Rockhaven Court Salinas, CA 93906 $584,999 2,591 sq. ft. 5,663 sq. ft. $226
2018-09-22 Single Family Ranch 2770 El Camino Real Salinas, CA 93907 $799,000 2,070 sq. ft. 462,607 sq. ft. $386
2018-09-21 Single Family 716 Amarillo Way Salinas, CA 93905 $399,900 1,273 sq. ft. 4,356 sq. ft. $314
2018-09-20 Single Family Contemporary 19580 Redding Drive Salinas, CA 93908 $995,000 4,200 sq. ft. 47,916 sq. ft. $237
2018-09-20 Single Family 217 Columbine Drive Salinas, CA 93906 $479,000 1,456 sq. ft. 6,098 sq. ft. $329
2018-09-20 Single Family Ranch 408 Virginia Avenue Salinas, CA 93907 $625,000 2,480 sq. ft. 20,909 sq. ft. $252
2018-09-19 Single Family Ranch 6705 Leon Drive Salinas, CA 93907 $725,000 2,339 sq. ft. 20,473 sq. ft. $310
2018-09-19 Single Family Tudor 262 San Benancio Road Salinas, CA 93908 $1,249,000 2,217 sq. ft. 68,389 sq. ft. $563
2018-09-18 Single Family 333 Capitol Street Salinas, CA 93901 $389,800 1,057 sq. ft. 6,970 sq. ft. $369
2018-09-18 Single Family 27550 Prestancia Circle Salinas, CA 93908 $969,000 3,818 sq. ft. 16,117 sq. ft. $254
2018-09-17 Single Family 1986 Gladstone Way Salinas, CA 93906 $599,000 2,447 sq. ft. 6,534 sq. ft. $245
2018-09-17 Single Family Ranch 629 Melrose Drive Salinas, CA 93901 $599,000 3,200 sq. ft. 7,405 sq. ft. $187
2018-09-16 Single Family 27857 Crowne Point Drive Salinas, CA 93908 $1,350,000 4,330 sq. ft. 68,389 sq. ft. $312
2018-09-15 Single Family 1479 Nichols Avenue Salinas, CA 93906 $449,900 1,036 sq. ft. 9,583 sq. ft. $434
2018-09-13 Single Family Contemporary 26140 Legends Court Salinas, CA 93908 $998,000 3,266 sq. ft. 13,068 sq. ft. $306
2018-09-13 Single Family Bungalow; Contemporary; Cottage; Ranch 363 Chardonnay Drive Salinas, CA 93906 $522,250 1,604 sq. ft. 6,098 sq. ft. $326
2018-09-11 Single Family 256 Wildwood Way Salinas, CA 93908 $685,000 1,465 sq. ft. 17,424 sq. ft. $468
2018-09-11 Single Family Ranch 19135 Marjorie Road Salinas, CA 93907 $599,999 1,568 sq. ft. 59,677 sq. ft. $383
2018-09-08 Single Family 1917 Harvard Court Salinas, CA 93906 $499,888 1,443 sq. ft. 5,663 sq. ft. $346
2018-09-07 Single Family 1042 Polk Street Salinas, CA 93906 $499,000 1,698 sq. ft. 6,970 sq. ft. $294
2018-09-07 Single Family Ranch 17961 Pesante Road Salinas, CA 93907 $610,000 1,056 sq. ft. 20,909 sq. ft. $578
2018-09-07 Single Family 835 Buckhorn Drive Salinas, CA 93905 $478,000 1,823 sq. ft. 5,227 sq. ft. $262
2018-09-06 Single Family 1736 Merlot Way Salinas, CA 93906 $510,000 1,604 sq. ft. 6,098 sq. ft. $318
2018-09-06 Single Family Contemporary 949 Crestview Street Salinas, CA 93906 $537,999 1,949 sq. ft. 4,356 sq. ft. $276
2018-09-05 Single Family 7 Cedros Avenue Salinas, CA 93901 $535,000 2,122 sq. ft. 6,534 sq. ft. $252
2018-09-05 Single Family 12955 Arthur Street Salinas, CA 93906 $409,900 1,111 sq. ft. 6,098 sq. ft. $369
2018-09-04 Single Family 378 Mendocino Drive Salinas, CA 93906 $459,000 1,312 sq. ft. 6,534 sq. ft. $350
2018-09-02 Single Family 211 Curtis Street Salinas, CA 93906 $415,900 1,051 sq. ft. 9,583 sq. ft. $396
2018-09-02 Single Family 4 Bernal Drive Salinas, CA 93906 $335,000 958 sq. ft. 5,663 sq. ft. $350
2018-09-01 Single Family 348 Navajo Drive Salinas, CA 93906 $459,900 1,476 sq. ft. 6,098 sq. ft. $312
2018-08-31 Single Family Mediterranean 27586 Prestancia Circle Salinas, CA 93908 $970,000 3,818 sq. ft. 34,848 sq. ft. $254
2018-08-30 Single Family 1014 Fitzgerald Street Salinas, CA 93906 $529,000 2,192 sq. ft. 3,920 sq. ft. $241
2018-08-29 Single Family 19391 Acclaim Drive Salinas, CA 93908 $669,900 1,831 sq. ft. 6,098 sq. ft. $366
2018-08-29 Single Family 1148 Via Del Sol Road Salinas, CA 93907 $399,000 1,000 sq. ft. 58,806 sq. ft. $399
2018-08-29 Single Family 903 Pajaro Street Salinas, CA 93901 $649,900 1,951 sq. ft. 7,405 sq. ft. $333
2018-08-25 Single Family 302 Tynan Way Salinas, CA 93906 $585,000 1,784 sq. ft. 6,098 sq. ft. $328
2018-08-24 Single Family 30 Longfellow Circle Salinas, CA 93906 $588,000 2,351 sq. ft. 7,405 sq. ft. $250
2018-08-23 Single Family 1046 Polk Street Salinas, CA 93906 $498,000 1,471 sq. ft. 7,405 sq. ft. $339
2018-08-22 Single Family Ranch 523 Napa Way Salinas, CA 93906 $510,000 2,008 sq. ft. 6,534 sq. ft. $254
2018-08-22 Single Family Traditional 1429 Linwood Drive Salinas, CA 93906 $410,000 1,123 sq. ft. 6,098 sq. ft. $365
2018-08-20 Single Family 1063 Tyler Street Salinas, CA 93906 $405,000 1,200 sq. ft. 6,534 sq. ft. $338
2018-08-20 Single Family Bungalow; Ranch 350 San Benancio Road Salinas, CA 93908 $2,395,000 1,968 sq. ft. 1,574,694 sq. ft. $1,217
2018-08-20 Single Family 1292 Hilltop Drive Salinas, CA 93905 $385,000 1,030 sq. ft. 6,098 sq. ft. $374
2018-08-18 Single Family 19 Downing Circle Salinas, CA 93906 $599,000 2,579 sq. ft. 5,663 sq. ft. $232
2018-08-17 Single Family Cottage 408 Hyland Drive Salinas, CA 93907 $370,000 875 sq. ft. 7,405 sq. ft. $423
2018-08-16 Single Family 9858 Colonial Place Salinas, CA 93907 $579,900 2,176 sq. ft. 13,504 sq. ft. $266
2018-08-15 Single Family Cottage; Craftsman 8025 Teichman Court Salinas, CA 93907 $647,000 1,525 sq. ft. 48,352 sq. ft. $424
2018-08-15 Single Family Traditional 206 La Mesa Drive Salinas, CA 93901 $499,000 1,427 sq. ft. 6,534 sq. ft. $350
2018-08-14 Single Family 1182 Via Del Sol Road Salinas, CA 93907 $560,000 1,176 sq. ft. 37,462 sq. ft. $476
2018-08-13 Single Family 543 Cherokee Court Salinas, CA 93906 $425,000 1,216 sq. ft. 7,405 sq. ft. $350
2018-08-13 Single Family Traditional 828 Via Maria Salinas, CA 93901 $460,000 1,514 sq. ft. 6,098 sq. ft. $304
2018-08-12 Single Family 770 Holly Street Salinas, CA 93905 $309,000 1,360 sq. ft. 6,970 sq. ft. $227
2018-08-12 Single Family 10770 Ralph Lane Salinas, CA 93907 $435,000 691 sq. ft. 43,560 sq. ft. $630
2018-08-11 Single Family 52 Christensen Avenue Salinas, CA 93906 $409,000 1,206 sq. ft. 3,920 sq. ft. $339
2018-08-10 Single Family 19550 Vierra Canyon Road Salinas, CA 93907 $699,000 2,004 sq. ft. 254,390 sq. ft. $349
2018-08-10 Single Family Ranch 107 Columbine Drive Salinas, CA 93906 $465,000 1,432 sq. ft. 6,098 sq. ft. $325
2018-08-10 Single Family Ranch 15105 Charter Oak Boulevard Salinas, CA 93907 $615,000 2,080 sq. ft. 10,019 sq. ft. $296
2018-08-10 Single Family 1773 Klamath Drive Salinas, CA 93906 $580,000 2,195 sq. ft. 5,663 sq. ft. $264
2018-08-09 Single Family Cabin 177 San Benancio Road Salinas, CA 93908 $848,000 3,508 sq. ft. 108,900 sq. ft. $242
2018-08-08 Single Family Bungalow 119 San Luis Street Salinas, CA 93901 $439,000 971 sq. ft. 3,485 sq. ft. $452
2018-08-07 Single Family 49 Maple Street Salinas, CA 93901 $399,000 895 sq. ft. 6,534 sq. ft. $446
2018-08-06 Single Family Ranch 1303 Rossano Court Salinas, CA 93905 $585,000 2,307 sq. ft. 6,534 sq. ft. $254
2018-08-06 Single Family 519 Chaparral Street Salinas, CA 93906 $425,000 1,786 sq. ft. 6,098 sq. ft. $238
2018-08-04 Single Family Ranch 18742 Coolidge Street Salinas, CA 93906 $420,000 1,102 sq. ft. 5,663 sq. ft. $381
2018-08-02 Single Family 640 Seneca Place Salinas, CA 93906 $425,000 1,595 sq. ft. 7,405 sq. ft. $266
2018-08-02 Single Family 256 Osage Drive Salinas, CA 93906 $429,000 1,213 sq. ft. 6,098 sq. ft. $354
2018-08-01 Single Family 15590 Charter Oak Boulevard Salinas, CA 93907 $559,000 1,810 sq. ft. 16,117 sq. ft. $309
2018-08-01 Single Family 13482 Paseo Terrano Salinas, CA 93908 $1,168,000 2,648 sq. ft. 31,363 sq. ft. $441
2018-08-01 Single Family 15645 Charter Oak Boulevard Salinas, CA 93907 $549,900 2,332 sq. ft. 13,939 sq. ft. $236
2018-07-28 Single Family 9857 Clover Trail Salinas, CA 93907 $630,000 3,080 sq. ft. 17,860 sq. ft. $205
2018-07-27 Single Family Ranch 18441 Moro Road Salinas, CA 93907 $760,000 2,198 sq. ft. 109,336 sq. ft. $346
2018-07-24 Single Family Craftsman 415 Lorimer Street Salinas, CA 93901 $749,900 2,621 sq. ft. 8,276 sq. ft. $286
2018-07-23 Single Family Victorian 486 Corral De Tierra Road Salinas, CA 93908 $3,000,000 4,190 sq. ft. 1,937,984 sq. ft. $716
2018-07-20 Single Family 14550 Castlerock Road Salinas, CA 93908 $2,375,000 6,040 sq. ft. 93,654 sq. ft. $393
2018-07-19 Single Family 27860 Crowne Point Drive Salinas, CA 93908 $1,199,000 3,818 sq. ft. 73,616 sq. ft. $314
2018-07-19 Single Family 242 Wildwood Way Salinas, CA 93908 $699,000 1,795 sq. ft. 16,553 sq. ft. $389
2018-07-18 Single Family 43 Laureles Grade Salinas, CA 93908 $1,025,000 2,843 sq. ft. 42,689 sq. ft. $361
2018-07-12 Single Family 450 Shelley Way Salinas, CA 93901 $529,000 1,782 sq. ft. 4,792 sq. ft. $297
2018-07-10 Single Family 437 Laurel Drive Salinas, CA 93906 $379,000 950 sq. ft. 6,098 sq. ft. $399
2018-07-10 Single Family 7185 Langley Canyon Road Salinas, CA 93907 $669,000 1,391 sq. ft. 10,890 sq. ft. $481
2018-07-10 Single Family 27567 Prestancia Circle Salinas, CA 93908 $1,310,000 4,241 sq. ft. 15,682 sq. ft. $309
2018-07-09 Single Family 832 Fairfax Drive Salinas, CA 93901 $479,900 1,161 sq. ft. 6,534 sq. ft. $413
2018-07-06 Single Family Ranch 22392 Montera Place Salinas, CA 93908 $953,000 2,682 sq. ft. 11,326 sq. ft. $355
2018-07-05 Single Family 716 San Juan Grade Road Salinas, CA 93906 $547,750 1,910 sq. ft. 16,553 sq. ft. $287
2018-07-04 Single Family Traditional 1021 Capri Way Salinas, CA 93905 $500,000 2,035 sq. ft. 3,920 sq. ft. $246
2018-07-04 Single Family Ranch 861 Via Maria Salinas, CA 93901 $549,000 1,468 sq. ft. 7,841 sq. ft. $374
2018-07-03 Single Family Ranch 9190 Coker Road Salinas, CA 93907 $780,000 3,700 sq. ft. 68,825 sq. ft. $211
2018-06-30 Single Family Ranch 115 Laureles Grade Salinas, CA 93908 $865,000 1,842 sq. ft. 68,389 sq. ft. $470
2018-06-29 Single Family Mediterranean 19652 Woodcrest Drive Salinas, CA 93908 $1,298,000 4,307 sq. ft. 49,223 sq. ft. $301
2018-06-29 Single Family 19615 Mesa Road Salinas, CA 93908 $997,000 3,044 sq. ft. 43,560 sq. ft. $328
2018-06-28 Single Family 101 Pine Canyon Road Salinas, CA 93908 $1,900,000 4,614 sq. ft. 213,444 sq. ft. $412
2018-06-28 Single Family 852 River Road Salinas, CA 93908 $779,000 2,661 sq. ft. 217,800 sq. ft. $293
2018-06-28 Single Family Spanish 1 Santa Lucia Avenue Salinas, CA 93901 $1,175,000 3,559 sq. ft. 13,939 sq. ft. $330
2018-06-23 Single Family 7167 Langley Court Salinas, CA 93907 $895,000 4,200 sq. ft. 12,632 sq. ft. $213
2018-06-22 Single Family 255 Wildwood Way Salinas, CA 93908 $725,000 1,878 sq. ft. 16,988 sq. ft. $386
2018-06-07 Single Family 17711 Riverbend Road Salinas, CA 93908 $689,900 2,417 sq. ft. 4,792 sq. ft. $285
2018-06-05 Single Family Mediterranean 153 Corral De Tierra Road Salinas, CA 93908 $2,785,000 6,466 sq. ft. 67,954 sq. ft. $431
2018-06-05 Single Family 1544 Imperial Way Salinas, CA 93906 $429,900 1,253 sq. ft. 5,663 sq. ft. $343
2018-06-01 Single Family 13 Ebano Place Salinas, CA 93905 $444,900 1,461 sq. ft. 7,405 sq. ft. $305
2018-05-29 Single Family 2233 San Miguel Canyon Road Salinas, CA 93907 $699,000 1,488 sq. ft. 108,900 sq. ft. $470
2018-05-29 Single Family 1008 Eagle Drive Salinas, CA 93905 $456,999 1,549 sq. ft. 4,792 sq. ft. $295
2018-05-23 Single Family 412 Rochex Avenue Salinas, CA 93906 $379,000 936 sq. ft. 4,356 sq. ft. $405
2018-05-11 Single Family Contemporary 17 Rhine Circle Salinas, CA 93906 $629,000 2,662 sq. ft. 6,098 sq. ft. $236
2018-05-11 Single Family Custom 410 Laurel Lane Salinas, CA 93908 $1,499,000 2,743 sq. ft. 54,450 sq. ft. $546
2018-05-11 Single Family 1236 Paseo Grande Salinas, CA 93905 $465,000 1,364 sq. ft. 6,534 sq. ft. $341
2018-05-11 Single Family 442 Shelley Way Salinas, CA 93901 $529,950 1,782 sq. ft. 4,792 sq. ft. $297
2018-05-11 Single Family Victorian 30 Central Avenue Salinas, CA 93901 $575,000 1,489 sq. ft. 8,276 sq. ft. $386
2018-05-10 Single Family 296 River Road Salinas, CA 93908 $589,000 1,271 sq. ft. 20,909 sq. ft. $463
2018-05-10 Single Family 2006 Santa Rita Street Salinas, CA 93906 $400,000 528 sq. ft. 4,356 sq. ft. $758
2018-02-14 Single Family 15891 Meridian Road Salinas, CA 93907 $449,000 1,512 sq. ft. 175,982 sq. ft. $297
2018-02-02 Single Family Farm House 63 Hitchcock Road Salinas, CA 93908 $599,000 2,204 sq. ft. 21,780 sq. ft. $272
2017-11-11 Single Family 27219 Cortina Way Salinas, CA 93908 $899,900 2,898 sq. ft. 10,454 sq. ft. $311
2017-06-21 Single Family 464 Comanche Way Salinas, CA 93906 $399,750 1,441 sq. ft. 5,998 sq. ft. $277
2017-06-21 Single Family 1827 Bradbury St Salinas, CA 93906 $469,000 1,681 sq. ft. 3,167 sq. ft. $279
2017-06-21 Single Family 191 Paradise Rd Salinas, CA 93907 $559,900 1,473 sq. ft. 44,431 sq. ft. $380
2017-06-21 Single Family 7206 Langley Canyon Rd Salinas, CA 93907 $599,900 1,582 sq. ft. 51,401 sq. ft. $379
2017-06-19 Single Family 1827 Hemingway Dr Salinas, CA 93906 $465,000 1,681 sq. ft. 3,097 sq. ft. $277
2017-06-19 Single Family 54 Chestnut St Salinas, CA 93901 $542,000 1,903 sq. ft. 7,802 sq. ft. $285
2017-06-19 Single Family 1932 Chelsea Ct Salinas, CA 93906 $637,000 3,043 sq. ft. 6,647 sq. ft. $209
2017-06-19 Single Family 505 Harding Cir Salinas, CA 93906 $425,000 1,427 sq. ft. 11,892 sq. ft. $298
2017-06-18 Single Family 130 N 2nd St Salinas, CA 93906 $379,900 1,173 sq. ft. 6,599 sq. ft. $324
2017-06-17 Single Family 1073 W Alisal St Salinas, CA 93901 $529,900 1,525 sq. ft. 8,499 sq. ft. $347
2017-06-17 Single Family 121 Rodeo Ave Salinas, CA 93906 $309,900 861 sq. ft. 4,400 sq. ft. $360
2017-06-17 Single Family 18463 Deertrack Pl Salinas, CA 93908 $775,000 2,841 sq. ft. 8,102 sq. ft. $273
2017-06-17 Single Family 346 Block Ave Salinas, CA 93906 $359,000 1,039 sq. ft. 3,498 sq. ft. $346
2017-06-16 Single Family 144 E Romie Ln Salinas, CA 93901 $485,000 1,365 sq. ft. 7,902 sq. ft. $355
2017-06-16 Single Family Contemporary 7 Somersworth Cir Salinas, CA 93906 $529,000 2,225 sq. ft. 6,098 sq. ft. $238
2017-06-16 Single Family 321 Tynan Way Salinas, CA 93906 $584,999 2,057 sq. ft. 6,456 sq. ft. $284
2017-06-16 Single Family 1387 New Hampshire Ct Salinas, CA 93905 $425,000 2,398 sq. ft. 5,144 sq. ft. $177
2017-06-15 Single Family 25400 Paseo Del Chaparral Salinas, CA 93908 $1,980,000 4,009 sq. ft. 130,680 sq. ft. $494
2017-06-15 Single Family 1068 Sherman Dr Salinas, CA 93907 $379,000 1,130 sq. ft. 3,341 sq. ft. $335
2017-06-15 Single Family 123 Chestnut St Salinas, CA 93901 $540,000 1,620 sq. ft. 6,499 sq. ft. $333
2017-06-15 Single Family Craftsman 22390 Berry Dr Salinas, CA 93908 $1,249,000 2,879 sq. ft. 108,900 sq. ft. $434
2017-06-14 Single Family 2 Mesa Del Sol Salinas, CA 93908 $1,200,000 3,324 sq. ft. 47,045 sq. ft. $361
2017-06-14 Single Family 527 Chaparral St Salinas, CA 93906 $385,000 1,634 sq. ft. 5,998 sq. ft. $236
2017-06-14 Single Family 241 Montclair Ln Salinas, CA 93906 $499,000 1,587 sq. ft. 4,234 sq. ft. $314
2017-06-14 Single Family 1334 Riker St Salinas, CA 93901 $549,900 1,929 sq. ft. 6,700 sq. ft. $285
2017-06-14 Single Family 9580 Prunedale South Rd Salinas, CA 93907 $620,000 1,456 sq. ft. 32,234 sq. ft. $426
2017-06-14 Single Family 33 Whitman Cir Salinas, CA 93906 $639,000 2,624 sq. ft. 8,638 sq. ft. $244
2017-06-13 Single Family 2147 San Miguel Canyon Rd Salinas, CA 93907 $399,900 843 sq. ft. 20,007 sq. ft. $474
2017-06-13 Single Family Mediterranean; Ranch; Spanish; Traditional 20150 Tarawild Ct Salinas, CA 93907 $777,000 2,370 sq. ft. 298,386 sq. ft. $328
2017-06-12 Single Family 148 Greenbriar Way Salinas, CA 93907 $582,500 2,337 sq. ft. 5,384 sq. ft. $249
2017-06-12 Single Family Ranch 19855 Hopewell Dr Salinas, CA 93907 $649,000 1,622 sq. ft. 108,900 sq. ft. $400
2017-06-12 Single Family 752 Josephine St Salinas, CA 93905 $210,000 1,008 sq. ft. 8,298 sq. ft. $208
2017-06-12 Single Family Mediterranean 431 Victoria Ave Salinas, CA 93906 $595,000 1,920 sq. ft. 7,588 sq. ft. $310
2017-06-11 Single Family 1243 Pasatiempo Way Salinas, CA 93901 $668,880 1,613 sq. ft. 6,970 sq. ft. $415
2017-06-10 Single Family Spanish 429 Alameda Ave Salinas, CA 93901 $555,000 1,680 sq. ft. 6,599 sq. ft. $330
2017-06-10 Single Family 63 Paseo Hermoso Salinas, CA 93908 $1,397,000 2,500 sq. ft. 89,433 sq. ft. $559
2017-06-10 Single Family 1117 Jean Ave Salinas, CA 93905 $360,000 977 sq. ft. 5,998 sq. ft. $368
2017-06-10 Single Family Traditional 742 Nacional Ct Salinas, CA 93901 $535,000 1,542 sq. ft. 6,534 sq. ft. $347
2017-06-10 Single Family Cabin; Contemporary 14693 Charter Oak Blvd Salinas, CA 93907 $589,000 2,218 sq. ft. 12,998 sq. ft. $266
2017-06-10 Single Family 17516 Woodridge Ct Salinas, CA 93908 $599,000 1,764 sq. ft. 3,585 sq. ft. $340
2017-06-10 Single Family 395 Echo Valley Rd C Salinas, CA 93907 $624,900 1,680 sq. ft. 52,272 sq. ft. $372
2017-06-08 Single Family 22150 Berry Dr Salinas, CA 93908 $525,000 1,271 sq. ft. 10,102 sq. ft. $413
2017-06-07 Single Family 624 Alameda Ave Salinas, CA 93901 $575,000 1,956 sq. ft. 7,000 sq. ft. $294
2017-06-07 Single Family 840 Capistrano Dr Salinas, CA 93901 $450,000 1,131 sq. ft. 6,499 sq. ft. $398
2017-06-07 Single Family 1156 Raven Ct Salinas, CA 93905 $499,000 2,255 sq. ft. 5,554 sq. ft. $221
2017-06-07 Single Family 1628 Marshfield Ct Salinas, CA 93906 $549,900 1,659 sq. ft. 7,096 sq. ft. $331
2017-06-06 Single Family 246 La Mesa Dr Salinas, CA 93901 $515,000 1,396 sq. ft. 6,499 sq. ft. $369
2017-06-05 Single Family 1692 Seville St Salinas, CA 93906 $375,000 1,170 sq. ft. 3,306 sq. ft. $321
2017-06-05 Single Family Traditional 313 Addington Ln Salinas, CA 93907 $199,000 955 sq. ft. 11,800 sq. ft. $208
2017-06-05 Single Family Bungalow 1208 Polk St Salinas, CA 93906 $370,000 850 sq. ft. 7,200 sq. ft. $435
2017-06-05 Single Family Bungalow 111 Hawthorne St Salinas, CA 93901 $462,500 928 sq. ft. 7,100 sq. ft. $498
2017-06-05 Single Family 1773 Delancey Dr Salinas, CA 93906 $488,900 1,618 sq. ft. 4,966 sq. ft. $302
2017-06-05 Single Family Bungalow 10385 Reese Cir Salinas, CA 93907 $650,000 936 sq. ft. 95,832 sq. ft. $694
2017-06-03 Single Family 1563 Verona Ct Salinas, CA 93905 $419,900 1,240 sq. ft. 4,095 sq. ft. $339
2017-06-03 Single Family Traditional 1552 Los Altos Way Salinas, CA 93906 $489,000 1,939 sq. ft. 5,663 sq. ft. $252
2017-06-03 Single Family 6915 Lakeview Dr Salinas, CA 93907 $520,000 1,395 sq. ft. 15,246 sq. ft. $373
2017-06-03 Single Family 9405 Silk Oak Pl Salinas, CA 93907 $619,950 1,966 sq. ft. 17,250 sq. ft. $315
2017-06-03 Single Family 22616 Black Mountain Rd Salinas, CA 93908 $650,000 2,067 sq. ft. 32,409 sq. ft. $314
2017-06-01 Single Family 1074 Bison Way Salinas, CA 93905 $449,000 1,353 sq. ft. 4,792 sq. ft. $332
2017-06-01 Single Family Mediterranean 18830 Tiburcio Ct Salinas, CA 93908 $759,000 2,259 sq. ft. 13,983 sq. ft. $336
2017-06-01 Single Family Mediterranean 14501 Roland Canyon Rd Salinas, CA 93908 $3,600,000 6,330 sq. ft. 471,319 sq. ft. $569
2017-06-01 Single Family Country English; Tudor 19607 Brentwood Ct Salinas, CA 93907 $654,888 2,206 sq. ft. 43,560 sq. ft. $297
2017-05-31 Single Family 1847 London Way Salinas, CA 93906 $555,000 1,974 sq. ft. 6,578 sq. ft. $281
2017-05-31 Single Family Cottage 13 Higuera Ln Salinas, CA 93907 $375,000 757 sq. ft. 19,079 sq. ft. $495
2017-05-30 Single Family 1731 Siskiyou Dr Salinas, CA 93906 $428,900 1,643 sq. ft. 5,750 sq. ft. $261
2017-05-30 Single Family 439 Corral De Tierra Rd Salinas, CA 93908 $799,000 2,454 sq. ft. 108,900 sq. ft. $326
2017-05-30 Single Family 1134 Cape Cod Way Salinas, CA 93906 $459,000 1,479 sq. ft. 5,401 sq. ft. $310
2017-05-30 Single Family Contemporary 1552 Cambridge Ct Salinas, CA 93906 $619,500 2,239 sq. ft. 6,316 sq. ft. $277
2017-05-27 Single Family 25507 Sunflower Ct Salinas, CA 93908 $635,000 1,570 sq. ft. 3,006 sq. ft. $404
2017-05-27 Single Family 17720 Riverbend Rd Salinas, CA 93908 $699,900 2,603 sq. ft. 4,966 sq. ft. $269
2017-05-26 Single Family Mediterranean 1552 Duran St Salinas, CA 93906 $389,000 1,170 sq. ft. 3,049 sq. ft. $332
2017-05-26 Single Family 7448 Leafwood Dr Salinas, CA 93907 $609,000 2,133 sq. ft. 45,302 sq. ft. $286
2017-05-26 Single Family 12925 Paseo Barranco Salinas, CA 93908 $1,144,000 5,300 sq. ft. 123,710 sq. ft. $216
2017-05-25 Single Family 15830 Avery Ln Salinas, CA 93907 $575,000 2,256 sq. ft. 108,900 sq. ft. $255
2017-05-25 Single Family 21124 Country Park Rd Salinas, CA 93908 $598,500 1,764 sq. ft. 6,011 sq. ft. $339
2017-05-25 Single Family 1236 Hilltop Dr Salinas, CA 93905 $460,000 2,344 sq. ft. 14,201 sq. ft. $196
2017-05-25 Single Family Mediterranean; Ranch 1939 Oxford Ct Salinas, CA 93906 $537,500 1,920 sq. ft. 5,968 sq. ft. $280
2017-05-25 Single Family 19851 Pesante Rd Salinas, CA 93907 $635,000 3,164 sq. ft. 70,132 sq. ft. $201
2017-05-25 Single Family Ranch 828 Fairfax Dr Salinas, CA 93901 $519,000 1,464 sq. ft. 6,599 sq. ft. $355
2017-05-24 Single Family Ranch 10755 Country Meadows Rd Salinas, CA 93907 $730,000 2,111 sq. ft. 44,431 sq. ft. $346
2017-05-23 Single Family Ranch 16081 Darcie Ln Salinas, CA 93908 $825,000 2,401 sq. ft. 13,634 sq. ft. $344
2017-05-23 Single Family Ranch 1662 Atherton Way Salinas, CA 93906 $474,500 1,763 sq. ft. 6,316 sq. ft. $269
2017-05-23 Single Family 924 San Vincente Ave Salinas, CA 93901 $615,000 1,787 sq. ft. 7,187 sq. ft. $344
2017-05-23 Single Family 26473 Honor Ln Salinas, CA 93908 $675,000 1,905 sq. ft. 7,405 sq. ft. $354
2017-05-23 Single Family 1036 Longfellow Dr Salinas, CA 93906 $525,000 1,974 sq. ft. 6,403 sq. ft. $266
2017-05-22 Single Family Contemporary; Mediterranean 10131 Meadow View Cir Salinas, CA 93907 $989,900 3,534 sq. ft. 55,757 sq. ft. $280
2017-05-22 Single Family 917 Beech St Salinas, CA 93905 $319,000 906 sq. ft. 6,403 sq. ft. $352
2017-05-22 Single Family Tudor 705 Nacional Ct Salinas, CA 93901 $735,000 2,250 sq. ft. 5,881 sq. ft. $327
2017-05-19 Single Family Contemporary 1104 C St Salinas, CA 93905 $379,500 768 sq. ft. 7,797 sq. ft. $494
2017-05-19 Single Family 1509 Madrone Dr Salinas, CA 93905 $489,999 2,227 sq. ft. 5,706 sq. ft. $220
2017-05-18 Single Family Craftsman 54 Capitol St Salinas, CA 93901 $445,000 1,726 sq. ft. 7,187 sq. ft. $258
2017-05-18 Single Family Contemporary 1311 Dickens Dr Salinas, CA 93901 $539,000 1,663 sq. ft. 7,013 sq. ft. $324
2017-05-18 Single Family Ranch 9818 Rye Ct Salinas, CA 93907 $569,000 1,792 sq. ft. 13,939 sq. ft. $318
2017-05-18 Single Family Contemporary 89 Clark St Salinas, CA 93901 $367,500 884 sq. ft. 6,186 sq. ft. $416
2017-05-17 Single Family 100 Robley Rd Salinas, CA 93908 $969,000 2,289 sq. ft. 209,088 sq. ft. $423
2017-05-17 Single Family 320 Capitol St Salinas, CA 93901 $620,000 3,056 sq. ft. 11,718 sq. ft. $203
2017-05-17 Single Family 221 Pine St Salinas, CA 93901 $529,900 1,518 sq. ft. 6,795 sq. ft. $349
2017-05-17 Single Family 1061 Sardinia Dr Salinas, CA 93905 $534,990 2,012 sq. ft. 4,574 sq. ft. $266
2017-05-16 Single Family Traditional 1235 De Cunha Ct Salinas, CA 93906 $539,000 2,591 sq. ft. 6,795 sq. ft. $208
2017-05-15 Single Family 12326 Maravilla Dr Salinas, CA 93908 $1,075,000 3,462 sq. ft. 67,387 sq. ft. $311
2017-05-15 Single Family 24845 Corte Poco 24845 Salinas, CA 93908 $879,000 2,562 sq. ft. 94,961 sq. ft. $343
2017-05-13 Single Family 1869 Bradbury St Salinas, CA 93906 $428,000 1,397 sq. ft. 2,526 sq. ft. $306
2017-05-12 Single Family 13225 Louise St Salinas, CA 93906 $417,000 1,337 sq. ft. 5,663 sq. ft. $312
2017-05-12 Single Family 6985 Lakeview Dr Salinas, CA 93907 $565,000 1,406 sq. ft. 21,344 sq. ft. $402
2017-05-11 Single Family 1511 Aragon Cir Salinas, CA 93906 $319,900 1,002 sq. ft. 3,223 sq. ft. $319
2017-05-11 Single Family Traditional 16 San Pedro St Salinas, CA 93901 $529,000 1,580 sq. ft. 6,316 sq. ft. $335
2017-05-11 Single Family Traditional 21 Chestnut St Salinas, CA 93901 $569,000 1,890 sq. ft. 6,490 sq. ft. $301
2017-05-10 Single Family 38 Young Dr Salinas, CA 93901 $375,000 1,077 sq. ft. 5,706 sq. ft. $348
2017-05-10 Single Family Mediterranean 1134 Cobblestone St Salinas, CA 93905 $489,900 1,823 sq. ft. 4,051 sq. ft. $269
2017-05-10 Single Family 45 Buena Vista St Salinas, CA 93901 $475,000 1,416 sq. ft. 6,490 sq. ft. $335
2017-05-10 Single Family Traditional 15665 Plaza Serena Salinas, CA 93907 $809,900 2,726 sq. ft. 131 sq. ft. $297
2017-05-09 Single Family English 1789 Klamath Dr Salinas, CA 93906 $595,000 2,922 sq. ft. 5,837 sq. ft. $204
2017-05-09 Single Family 9485 S Century Oak Rd Salinas, CA 93907 $649,000 1,966 sq. ft. 17,119 sq. ft. $330
2017-05-08 Single Family 1891 Stratford Ct Salinas, CA 93906 $595,000 2,396 sq. ft. 6,186 sq. ft. $248
2017-05-06 Single Family 1054 Tyler St Salinas, CA 93906 $369,999 926 sq. ft. 6,621 sq. ft. $400
2017-05-06 Single Family 316 Noice Dr Salinas, CA 93906 $429,900 1,705 sq. ft. 7,187 sq. ft. $252
2017-05-05 Single Family 1669 Beacon Hill Dr Salinas, CA 93906 $439,000 1,231 sq. ft. 4,704 sq. ft. $357
2017-05-04 Single Family 1035 Baywood Pl Salinas, CA 93901 $824,000 2,788 sq. ft. 7,405 sq. ft. $296
2017-05-04 Single Family Farm House 25252 Limekiln Rd Salinas, CA 93908 $2,490,000 5,745 sq. ft. 696,960 sq. ft. $433
2017-05-04 Single Family 6980 Lakeview Dr Salinas, CA 93907 $549,000 1,584 sq. ft. 18,557 sq. ft. $347
2017-05-03 Single Family 560 Mcallister St Salinas, CA 93907 $467,900 1,522 sq. ft. 5,663 sq. ft. $307
2017-05-03 Single Family 338 Westminster Dr Salinas, CA 93906 $580,000 2,110 sq. ft. 6,578 sq. ft. $275
2017-05-02 Single Family 408 Elwood St Salinas, CA 93906 $375,000 1,215 sq. ft. 6,882 sq. ft. $309
2017-05-02 Single Family 16531 Meridian Rd Salinas, CA 93907 $529,900 1,583 sq. ft. 20,038 sq. ft. $335
2017-05-02 Single Family 17585 River Run Rd Salinas, CA 93908 $599,999 1,786 sq. ft. 5,140 sq. ft. $336
2017-05-02 Single Family 39 Alameda Pl Salinas, CA 93901 $549,000 2,048 sq. ft. 6,708 sq. ft. $268
2017-05-01 Single Family Mediterranean 21152 Old Ranch Ct Salinas, CA 93908 $618,950 1,666 sq. ft. 4,225 sq. ft. $372
2017-05-01 Single Family 27566 Prestancia Cir Salinas, CA 93908 $929,000 3,818 sq. ft. 13,634 sq. ft. $243
2017-05-01 Single Family Traditional 1603 Atherton Way Salinas, CA 93906 $499,000 2,182 sq. ft. 7,841 sq. ft. $229
2017-04-29 Single Family Ranch 18687 Eisenhower St Salinas, CA 93906 $415,000 1,111 sq. ft. 6,534 sq. ft. $374
2017-04-29 Single Family Contemporary; Ranch 9355 Holly Oak Way Salinas, CA 93907 $569,000 1,770 sq. ft. 13,155 sq. ft. $321
2017-04-28 Single Family Mediterranean 27335 Bavella Way Salinas, CA 93908 $643,900 1,570 sq. ft. 4,661 sq. ft. $410
2017-04-27 Single Family 10 Downing Cir Salinas, CA 93906 $529,000 2,394 sq. ft. 6,098 sq. ft. $221
2017-04-27 Single Family 18182 Vierra Canyon Rd Salinas, CA 93907 $695,000 2,443 sq. ft. 116,741 sq. ft. $284
2017-04-26 Single Family Mediterranean 1630 Bologna Ct Salinas, CA 93905 $475,000 2,035 sq. ft. 4,138 sq. ft. $233
2017-04-26 Single Family Ranch 36 Paseo Hermoso Salinas, CA 93908 $895,000 2,549 sq. ft. 57,935 sq. ft. $351
2017-04-25 Single Family Ranch 1231 Summit Dr Salinas, CA 93905 $375,000 1,030 sq. ft. 8,189 sq. ft. $364
2017-04-24 Single Family 235 San Juan Grade Rd Salinas, CA 93906 $345,000 764 sq. ft. 8,320 sq. ft. $452
2017-04-24 Single Family 30 Central Ave Salinas, CA 93901 $589,000 1,489 sq. ft. 8,407 sq. ft. $396
2017-04-22 Single Family 17235 Garlen Ln Salinas, CA 93907 $625,000 2,230 sq. ft. 21,780 sq. ft. $280
2017-04-22 Single Family 174 Riker Ter Salinas, CA 93901 $485,000 1,153 sq. ft. 6,011 sq. ft. $421
2017-04-21 Single Family Ranch; Traditional 759 Monterey Salinas Highway Salinas, CA 93908 $1,150,000 2,400 sq. ft. 304,920 sq. ft. $479
2017-04-21 Single Family Traditional 11 Elmsford Cir Salinas, CA 93906 $608,000 2,642 sq. ft. 5,968 sq. ft. $230
2017-04-20 Single Family Custom 22557 Black Mountain Rd Salinas, CA 93908 $675,000 2,096 sq. ft. 13,199 sq. ft. $322
2017-04-19 Single Family 19240 Eden Path Salinas, CA 93907 $875,000 3,072 sq. ft. 131,551 sq. ft. $285
2017-04-19 Single Family 942 Lupin Salinas, CA 93906 $439,900 2,690 sq. ft. 7,405 sq. ft. $164
2017-04-19 Single Family 458 Shelley Way Salinas, CA 93901 $450,000 1,376 sq. ft. 5,793 sq. ft. $327
2017-04-18 Single Family 1401 Alma Salinas, CA 93905 $179,000 664 sq. ft. 7,623 sq. ft. $270
2017-04-18 Single Family Traditional 242 Navajo Salinas, CA 93906 $399,900 1,208 sq. ft. 5,663 sq. ft. $331
2017-04-17 Single Family 1340 Rossano Salinas, CA 93905 $579,000 2,976 sq. ft. 6,534 sq. ft. $195
2017-04-17 Single Family Contemporary; Custom 7350 Arrowhead Dr Salinas, CA 93907 $849,000 3,224 sq. ft. 110,207 sq. ft. $263
2017-04-15 Single Family 42 Magnolia Dr Salinas, CA 93905 $340,000 923 sq. ft. 6,011 sq. ft. $368
2017-04-14 Single Family 14570 Mountain Quail Rd Salinas, CA 93908 $795,000 2,673 sq. ft. 6,098 sq. ft. $297
2017-04-13 Single Family 767 Central Ave Salinas, CA 93901 $409,000 1,123 sq. ft. 7,231 sq. ft. $364
2017-04-12 Single Family Contemporary 1780 Windsor St Salinas, CA 93906 $610,000 2,535 sq. ft. 6,447 sq. ft. $241
2017-04-12 Single Family 1238 Adams St Salinas, CA 93906 $385,000 1,396 sq. ft. 7,405 sq. ft. $276
2017-04-12 Single Family Country English 1608 Piazza Dr Salinas, CA 93905 $494,500 2,487 sq. ft. 4,922 sq. ft. $199
2017-04-11 Single Family Tract 1633 Chico Way Salinas, CA 93906 $395,000 1,260 sq. ft. 3,920 sq. ft. $313
2017-04-11 Single Family 215 Carriage Dr Salinas, CA 93905 $379,900 1,506 sq. ft. 3,311 sq. ft. $252
2017-04-10 Single Family 821 La Cuesta Ct Salinas, CA 93905 $430,000 1,279 sq. ft. 4,792 sq. ft. $336
2017-04-10 Single Family French 42 Grove St Salinas, CA 93901 $565,000 1,701 sq. ft. 6,490 sq. ft. $332
2017-04-07 Single Family 1048 Bison Way Salinas, CA 93905 $459,900 2,106 sq. ft. 5,271 sq. ft. $218
2017-04-07 Single Family Ranch 22942 Cordoba Pl Salinas, CA 93908 $759,000 1,910 sq. ft. 10,934 sq. ft. $397
2017-04-07 Single Family 1329 Rossano Ct Salinas, CA 93905 $695,000 3,564 sq. ft. 8,712 sq. ft. $195
2017-04-07 Single Family Spanish 297 San Benancio Rd Salinas, CA 93908 $895,000 2,583 sq. ft. 132,422 sq. ft. $346
2017-04-07 Single Family 17679 Riverbend Rd Salinas, CA 93908 $645,000 2,603 sq. ft. 5,053 sq. ft. $248
2017-04-06 Single Family Mediterranean 22522 Indian Springs Rd Salinas, CA 93908 $1,399,000 3,640 sq. ft. 17,860 sq. ft. $384
2017-04-06 Single Family Craftsman 431 West St Salinas, CA 93901 $599,000 2,764 sq. ft. 6,490 sq. ft. $217
2017-04-04 Single Family 251 Natividad Rd Salinas, CA 93906 $699,000 2,333 sq. ft. 62,291 sq. ft. $300
2017-03-31 Single Family 1712 Los Coches Cir Salinas, CA 93906 $395,000 1,260 sq. ft. 3,920 sq. ft. $313
2017-03-31 Single Family Contemporary 22635 Oak Canyon Rd Salinas, CA 93908 $699,900 2,259 sq. ft. 11,674 sq. ft. $310
2017-03-31 Single Family Traditional 215 Winham St Salinas, CA 93901 $560,000 1,563 sq. ft. 6,403 sq. ft. $358
2017-03-31 Single Family Contemporary 212a San Benancio Rd Salinas, CA 93908 $845,000 2,246 sq. ft. 108,900 sq. ft. $376
2017-03-31 Single Family Ranch 17064 Mcguffie Rd Salinas, CA 93907 $615,000 1,814 sq. ft. 43,560 sq. ft. $339
2017-03-31 Single Family Spanish 321 West St Salinas, CA 93901 $499,900 1,559 sq. ft. 5,881 sq. ft. $321
2017-03-30 Single Family Contemporary 1605 Marshfield Ct Salinas, CA 93906 $480,000 1,794 sq. ft. 6,882 sq. ft. $268
2017-03-30 Single Family 7 Randall Rd Salinas, CA 93907 $370,000 1,716 sq. ft. 10,193 sq. ft. $216
2017-03-30 Single Family 1225 Tahiti Pl Salinas, CA 93905 $312,200 1,481 sq. ft. 6,011 sq. ft. $211
2017-03-28 Single Family Ranch; Tract 1843 Redondo Way Salinas, CA 93906 $406,000 1,371 sq. ft. 6,970 sq. ft. $296
2017-03-24 Single Family 1497 Cherokee Dr Salinas, CA 93906 $387,700 1,441 sq. ft. 11,021 sq. ft. $269
2017-03-23 Single Family 1241 Bolero Ave Salinas, CA 93906 $385,000 1,215 sq. ft. 5,881 sq. ft. $317
2017-03-21 Single Family 18665 Moro Rd Salinas, CA 93907 $669,500 3,109 sq. ft. 62,291 sq. ft. $215
2017-03-20 Single Family 323 Tynan Way Salinas, CA 93906 $599,000 2,239 sq. ft. 7,187 sq. ft. $268
2017-03-17 Single Family 486 Paradise Rd Salinas, CA 93907 $515,000 1,924 sq. ft. 60,548 sq. ft. $268
2017-03-16 Single Family Ranch 25303 Camino De Chamisal Salinas, CA 93908 $1,269,500 2,880 sq. ft. 65,776 sq. ft. $441
2017-03-16 Single Family Contemporary; Ranch 14475 Mountain Quail Rd Salinas, CA 93908 $950,000 2,851 sq. ft. 7,405 sq. ft. $333
2017-03-13 Single Family Ranch 26455 Tierra Vista Ln Salinas, CA 93908 $1,245,000 3,525 sq. ft. 109,902 sq. ft. $353
2017-03-10 Single Family 1236 E Paseo Grande St Salinas, CA 93905 $429,000 1,364 sq. ft. 6,621 sq. ft. $315
2017-03-09 Single Family 1021 Acosta St Salinas, CA 93905 $339,900 1,385 sq. ft. 7,623 sq. ft. $245
2017-03-08 Single Family 721 Via Maria Salinas, CA 93901 $375,000 1,597 sq. ft. 6,186 sq. ft. $235
2017-03-06 Single Family Traditional 63 La Mirada Ct Salinas, CA 93901 $669,000 3,474 sq. ft. 7,492 sq. ft. $193
2017-03-03 Single Family Ranch 17918 Pesante Rd Salinas, CA 93907 $499,500 1,496 sq. ft. 24,699 sq. ft. $334
2017-03-03 Single Family Victorian 399 Central Ave Salinas, CA 93901 $452,500 2,153 sq. ft. 7,100 sq. ft. $210
2017-03-02 Single Family Victorian 102 Geil St Salinas, CA 93901 $395,000 1,080 sq. ft. 5,184 sq. ft. $366
2017-03-02 Single Family 222 Katherine Ave Salinas, CA 93901 $510,000 1,382 sq. ft. 6,011 sq. ft. $369
2017-03-02 Single Family Traditional 18727 Louise Ct Salinas, CA 93906 $359,000 1,045 sq. ft. 6,970 sq. ft. $344
2017-02-25 Single Family 22740 Torero Ct Salinas, CA 93908 $868,000 2,592 sq. ft. 11,326 sq. ft. $335
2017-02-24 Single Family Contemporary 720 La Mesa Dr Salinas, CA 93901 $468,000 1,601 sq. ft. 6,621 sq. ft. $292
2017-02-23 Single Family Contemporary; Spanish 780 El Camino Real N Salinas, CA 93907 $1,099,000 1,850 sq. ft. 847,242 sq. ft. $594
2017-02-22 Single Family 728 E Market St Salinas, CA 93905 $325,000 803 sq. ft. 6,882 sq. ft. $405
2017-02-16 Single Family Cape Cod 803 Elm Dr Salinas, CA 93905 $299,900 1,099 sq. ft. 5,009 sq. ft. $273
2017-02-16 Single Family Traditional 237 Sansome St Salinas, CA 93907 $436,900 1,533 sq. ft. 4,051 sq. ft. $285
2017-02-14 Single Family Ranch 817 Via Maria Salinas, CA 93901 $475,000 1,676 sq. ft. 6,098 sq. ft. $283
2017-02-10 Single Family 242 Towt St Salinas, CA 93905 $349,900 1,354 sq. ft. 7,187 sq. ft. $258
2017-02-10 Single Family 24485 Vereda Del Valle Salinas, CA 93908 $1,300,000 3,090 sq. ft. 58,501 sq. ft. $421
2017-02-10 Single Family Charter Oak Blvd Salinas, CA 93907 $610,000 2,332 sq. ft. 13,939 sq. ft. $262
2017-02-09 Single Family 14682 Charter Oak Blvd Salinas, CA 93907 $642,500 2,056 sq. ft. 14,854 sq. ft. $312
2017-02-08 Single Family 153 Orchard Ave Salinas, CA 93905 $330,000 960 sq. ft. 4,792 sq. ft. $344
2017-02-03 Single Family Traditional 24665 Vereda Corta Salinas, CA 93908 $1,398,000 3,088 sq. ft. 56,802 sq. ft. $453
2017-02-01 Single Family Cabin; Contemporary; Custom 28000 Underwood Rd Salinas, CA 93908 $2,295,000 2,850 sq. ft. 1,437,480 sq. ft. $805
2017-01-30 Single Family 777 Kilbreth Ave Salinas, CA 93905 $340,000 1,195 sq. ft. 8,189 sq. ft. $285
2017-01-17 Single Family 9135 Moonlight Ct Salinas, CA 93907 $899,950 2,750 sq. ft. 131,987 sq. ft. $327
2017-01-14 Single Family Ranch 201 W Acacia St Salinas, CA 93901 $549,000 2,073 sq. ft. 7,013 sq. ft. $265
2017-01-12 Single Family 8 Spoleto Cir Salinas, CA 93905 $435,000 2,131 sq. ft. 4,225 sq. ft. $204
2017-01-11 Single Family 12 Antigua Cir Salinas, CA 93905 $430,000 1,793 sq. ft. 6,229 sq. ft. $240
2017-01-10 Single Family 9847 Prunedale South Rd Salinas, CA 93907 $385,000 1,060 sq. ft. 14,810 sq. ft. $363
2016-12-23 Single Family 1645 Ukiah Way Salinas, CA 93906 $359,000 1,112 sq. ft. 6,098 sq. ft. $323
2016-12-21 Single Family 1864 Stratford Ct Salinas, CA 93906 $519,900 1,839 sq. ft. 5,314 sq. ft. $283
2016-12-08 Single Family Ranch 9255 Canyon Oak Rd Salinas, CA 93907 $650,000 2,348 sq. ft. 12,415 sq. ft. $277
2016-11-17 Single Family 1737 Siskiyou Dr Salinas, CA 93906 $420,000 1,661 sq. ft. 5,793 sq. ft. $253
2016-11-17 Single Family 213 Maryal Dr Salinas, CA 93906 $418,000 1,525 sq. ft. 6,316 sq. ft. $274
2016-11-16 Single Family Traditional 22760 Bravo Ct Salinas, CA 93908 $959,000 2,360 sq. ft. 13,721 sq. ft. $406
2016-11-02 Single Family 1645 Ukiah Way Salinas, CA 93906 $359,000 1,112 sq. ft. 6,098 sq. ft. $323
2016-10-29 Single Family 1318 Cherokee Dr Salinas, CA 93906 $374,900 1,082 sq. ft. 7,492 sq. ft. $346
2016-10-29 Single Family 558 Victor St Salinas, CA 93907 $305,000 985 sq. ft. 4,966 sq. ft. $310
2016-10-20 Single Family 332 Archer St Salinas, CA 93901 $444,000 1,553 sq. ft. 7,797 sq. ft. $286
2016-10-09 Single Family 137 Grove St Salinas, CA 93901 $520,000 1,754 sq. ft. 7,754 sq. ft. $296
2016-09-28 Single Family 251 San Juan Grade Rd Salinas, CA 93906 $349,000 1,034 sq. ft. 8,712 sq. ft. $338
2016-08-01 Single Family 24 Winham St Salinas, CA 93901 $450,000 1,474 sq. ft. 6,142 sq. ft. $305
2016-06-14 Single Family 15 Homestead Ave Salinas, CA 93901 $430,000 1,800 sq. ft. 8,015 sq. ft. $239
2016-06-07 Single Family 21152 Valle San Juan Dr Salinas, CA 93907 $1,170,000 4,235 sq. ft. 43,560 sq. ft. $276
2016-06-01 Single Family 46 Paloma Ave Salinas, CA 93905 $375,000 1,156 sq. ft. 6,011 sq. ft. $324
2016-04-27 Single Family Spanish 13506 Paseo Terrano Salinas, CA 93908 $950,000 5,020 sq. ft. 39,857 sq. ft. $189
2016-04-27 Single Family Traditional 27573 Prestancia Cir Salinas, CA 93908 $755,000 3,818 sq. ft. 14,767 sq. ft. $198
2016-04-11 Single Family Custom 25362 Markham Ln Salinas, CA 93908 $1,998,000 5,247 sq. ft. 87,120 sq. ft. $381
2016-04-07 Single Family Mediterranean 384 Corral De Tierra Rd Salinas, CA 93908 $3,888,000 3,547 sq. ft. 435,600 sq. ft. $1,096
2016-03-25 Single Family 17970 Vierra Canyon Rd Salinas, CA 93907 $550,000 1,808 sq. ft. 285,318 sq. ft. $304